sensor_id;sensor_type;location;lat;lon;timestamp;pressure;altitude;pressure_sealevel;temperature;humidity
10940;BME280;5522;42.696;23.494;2023-02-10T00:01:01;53590.47;;;-139.68;100.00
10940;BME280;5522;42.696;23.494;2023-02-10T00:03:28;53606.56;;;-139.68;100.00
10940;BME280;5522;42.696;23.494;2023-02-10T00:05:55;53616.59;;;-139.68;100.00
10940;BME280;5522;42.696;23.494;2023-02-10T00:08:23;53596.50;;;-139.68;100.00
10940;BME280;5522;42.696;23.494;2023-02-10T00:10:50;53598.50;;;-139.68;100.00
10940;BME280;5522;42.696;23.494;2023-02-10T00:13:17;53628.66;;;-139.68;100.00
10940;BME280;5522;42.696;23.494;2023-02-10T00:15:44;53558.31;;;-139.68;100.00
10940;BME280;5522;42.696;23.494;2023-02-10T00:18:10;53590.47;;;-139.68;100.00
10940;BME280;5522;42.696;23.494;2023-02-10T00:20:37;53618.63;;;-139.68;100.00
10940;BME280;5522;42.696;23.494;2023-02-10T00:23:04;53580.41;;;-139.68;100.00
10940;BME280;5522;42.696;23.494;2023-02-10T00:25:34;53562.31;;;-139.68;100.00
10940;BME280;5522;42.696;23.494;2023-02-10T00:28:01;53582.44;;;-139.68;100.00
10940;BME280;5522;42.696;23.494;2023-02-10T00:30:28;53606.56;;;-139.68;100.00
10940;BME280;5522;42.696;23.494;2023-02-10T00:32:55;53590.47;;;-139.68;100.00
10940;BME280;5522;42.696;23.494;2023-02-10T00:35:22;53568.34;;;-139.68;100.00
10940;BME280;5522;42.696;23.494;2023-02-10T00:37:49;53582.44;;;-139.68;100.00
10940;BME280;5522;42.696;23.494;2023-02-10T00:40:16;53590.47;;;-139.68;100.00
10940;BME280;5522;42.696;23.494;2023-02-10T00:42:45;53614.59;;;-139.68;100.00
10940;BME280;5522;42.696;23.494;2023-02-10T00:45:12;53582.44;;;-139.68;100.00
10940;BME280;5522;42.696;23.494;2023-02-10T00:47:39;53570.38;;;-139.68;100.00
10940;BME280;5522;42.696;23.494;2023-02-10T00:50:06;53606.56;;;-139.68;100.00
10940;BME280;5522;42.696;23.494;2023-02-10T00:52:33;53622.63;;;-139.68;100.00
10940;BME280;5522;42.696;23.494;2023-02-10T00:55:00;53570.38;;;-139.68;100.00
10940;BME280;5522;42.696;23.494;2023-02-10T00:57:27;53582.44;;;-139.68;100.00
10940;BME280;5522;42.696;23.494;2023-02-10T01:07:41;53600.53;;;-139.68;100.00
10940;BME280;5522;42.696;23.494;2023-02-10T01:10:08;53586.44;;;-139.68;100.00
10940;BME280;5522;42.696;23.494;2023-02-10T01:12:34;53544.22;;;-139.68;100.00
10940;BME280;5522;42.696;23.494;2023-02-10T01:15:02;53580.41;;;-139.68;100.00
10940;BME280;5522;42.696;23.494;2023-02-10T01:17:28;53562.31;;;-139.68;100.00
10940;BME280;5522;42.696;23.494;2023-02-10T01:19:55;53574.38;;;-139.68;100.00
10940;BME280;5522;42.696;23.494;2023-02-10T01:22:22;53524.13;;;-139.68;100.00
10940;BME280;5522;42.696;23.494;2023-02-10T01:24:50;53570.38;;;-139.68;100.00
10940;BME280;5522;42.696;23.494;2023-02-10T01:27:17;53544.22;;;-139.68;100.00
10940;BME280;5522;42.696;23.494;2023-02-10T01:29:44;53566.34;;;-139.68;100.00
10940;BME280;5522;42.696;23.494;2023-02-10T01:32:11;53570.38;;;-139.68;100.00
10940;BME280;5522;42.696;23.494;2023-02-10T01:34:38;53598.50;;;-139.68;100.00
10940;BME280;5522;42.696;23.494;2023-02-10T01:37:04;53616.59;;;-139.68;100.00
10940;BME280;5522;42.696;23.494;2023-02-10T01:39:31;53562.31;;;-139.68;100.00
10940;BME280;5522;42.696;23.494;2023-02-10T01:42:00;53584.44;;;-139.68;100.00
10940;BME280;5522;42.696;23.494;2023-02-10T01:47:31;53546.25;;;-139.68;100.00
10940;BME280;5522;42.696;23.494;2023-02-10T01:49:57;53554.28;;;-139.68;100.00
10940;BME280;5522;42.696;23.494;2023-02-10T01:52:25;53596.50;;;-139.68;100.00
10940;BME280;5522;42.696;23.494;2023-02-10T01:54:57;53600.53;;;-139.68;100.00
10940;BME280;5522;42.696;23.494;2023-02-10T01:57:28;53580.41;;;-139.68;100.00
10940;BME280;5522;42.696;23.494;2023-02-10T01:59:56;53542.22;;;-139.68;100.00
10940;BME280;5522;42.696;23.494;2023-02-10T02:02:25;53552.28;;;-139.68;100.00
10940;BME280;5522;42.696;23.494;2023-02-10T02:04:53;53538.19;;;-139.68;100.00
10940;BME280;5522;42.696;23.494;2023-02-10T02:07:22;53606.56;;;-139.68;100.00
10940;BME280;5522;42.696;23.494;2023-02-10T02:09:51;53574.38;;;-139.68;100.00
10940;BME280;5522;42.696;23.494;2023-02-10T02:12:22;53550.25;;;-139.68;100.00
10940;BME280;5522;42.696;23.494;2023-02-10T02:14:54;53592.47;;;-139.68;100.00
10940;BME280;5522;42.696;23.494;2023-02-10T02:17:29;53574.38;;;-139.68;100.00
10940;BME280;5522;42.696;23.494;2023-02-10T02:20:13;53578.41;;;-139.68;100.00
10940;BME280;5522;42.696;23.494;2023-02-10T02:23:10;53594.50;;;-139.68;100.00
10940;BME280;5522;42.696;23.494;2023-02-10T02:25:51;53578.41;;;-139.68;100.00
10940;BME280;5522;42.696;23.494;2023-02-10T02:28:25;53566.34;;;-139.68;100.00
10940;BME280;5522;42.696;23.494;2023-02-10T02:34:07;53614.59;;;-139.68;100.00
10940;BME280;5522;42.696;23.494;2023-02-10T02:36:40;53590.47;;;-139.68;100.00
10940;BME280;5522;42.696;23.494;2023-02-10T02:39:08;53550.25;;;-139.68;100.00
10940;BME280;5522;42.696;23.494;2023-02-10T02:41:35;53556.28;;;-139.68;100.00
10940;BME280;5522;42.696;23.494;2023-02-10T02:44:02;53594.50;;;-139.68;100.00
10940;BME280;5522;42.696;23.494;2023-02-10T02:46:41;53620.63;;;-139.68;100.00
10940;BME280;5522;42.696;23.494;2023-02-10T02:49:21;53534.19;;;-139.68;100.00
10940;BME280;5522;42.696;23.494;2023-02-10T02:51:59;53554.28;;;-139.68;100.00
10940;BME280;5522;42.696;23.494;2023-02-10T02:54:31;53566.34;;;-139.68;100.00
10940;BME280;5522;42.696;23.494;2023-02-10T02:57:07;53568.34;;;-139.68;100.00
10940;BME280;5522;42.696;23.494;2023-02-10T02:59:39;53530.16;;;-139.68;100.00
10940;BME280;5522;42.696;23.494;2023-02-10T03:02:09;53580.41;;;-139.68;100.00
10940;BME280;5522;42.696;23.494;2023-02-10T03:04:39;53578.41;;;-139.68;100.00
10940;BME280;5522;42.696;23.494;2023-02-10T03:07:06;53566.34;;;-139.68;100.00
10940;BME280;5522;42.696;23.494;2023-02-10T03:09:34;53582.44;;;-139.68;100.00
10940;BME280;5522;42.696;23.494;2023-02-10T03:12:02;53590.47;;;-139.68;100.00
10940;BME280;5522;42.696;23.494;2023-02-10T03:14:28;53562.31;;;-139.68;100.00
10940;BME280;5522;42.696;23.494;2023-02-10T03:16:55;53558.31;;;-139.68;100.00
10940;BME280;5522;42.696;23.494;2023-02-10T03:19:22;53600.53;;;-139.68;100.00
10940;BME280;5522;42.696;23.494;2023-02-10T03:21:51;53594.50;;;-139.68;100.00
10940;BME280;5522;42.696;23.494;2023-02-10T03:24:17;53560.31;;;-139.68;100.00
10940;BME280;5522;42.696;23.494;2023-02-10T03:26:45;53548.25;;;-139.68;100.00
10940;BME280;5522;42.696;23.494;2023-02-10T03:29:13;53586.44;;;-139.68;100.00
10940;BME280;5522;42.696;23.494;2023-02-10T03:31:40;53530.16;;;-139.68;100.00
10940;BME280;5522;42.696;23.494;2023-02-10T03:34:07;53542.22;;;-139.68;100.00
10940;BME280;5522;42.696;23.494;2023-02-10T03:36:33;53552.28;;;-139.68;100.00
10940;BME280;5522;42.696;23.494;2023-02-10T03:39:02;53574.38;;;-139.68;100.00
10940;BME280;5522;42.696;23.494;2023-02-10T03:41:30;53566.34;;;-139.68;100.00
10940;BME280;5522;42.696;23.494;2023-02-10T03:43:56;53576.41;;;-139.68;100.00
10940;BME280;5522;42.696;23.494;2023-02-10T03:46:23;53548.25;;;-139.68;100.00
10940;BME280;5522;42.696;23.494;2023-02-10T03:48:50;53546.25;;;-139.68;100.00
10940;BME280;5522;42.696;23.494;2023-02-10T03:51:17;53574.38;;;-139.68;100.00
10940;BME280;5522;42.696;23.494;2023-02-10T03:53:44;53576.41;;;-139.68;100.00
10940;BME280;5522;42.696;23.494;2023-02-10T03:56:12;53546.25;;;-139.68;100.00
10940;BME280;5522;42.696;23.494;2023-02-10T03:58:39;53560.31;;;-139.68;100.00
10940;BME280;5522;42.696;23.494;2023-02-10T04:01:10;53542.22;;;-139.68;100.00
10940;BME280;5522;42.696;23.494;2023-02-10T04:03:38;53550.25;;;-139.68;100.00
10940;BME280;5522;42.696;23.494;2023-02-10T04:06:05;53536.19;;;-139.68;100.00
10940;BME280;5522;42.696;23.494;2023-02-10T04:08:32;53542.22;;;-139.68;100.00
10940;BME280;5522;42.696;23.494;2023-02-10T04:10:59;53550.25;;;-139.68;100.00
10940;BME280;5522;42.696;23.494;2023-02-10T04:13:27;53544.22;;;-139.68;100.00
10940;BME280;5522;42.696;23.494;2023-02-10T04:16:02;53534.19;;;-139.68;100.00
10940;BME280;5522;42.696;23.494;2023-02-10T04:18:29;53538.19;;;-139.68;100.00
10940;BME280;5522;42.696;23.494;2023-02-10T04:20:56;53548.25;;;-139.68;100.00
10940;BME280;5522;42.696;23.494;2023-02-10T04:23:23;53530.16;;;-139.68;100.00
10940;BME280;5522;42.696;23.494;2023-02-10T04:25:50;53566.34;;;-139.68;100.00
10940;BME280;5522;42.696;23.494;2023-02-10T04:28:16;53546.25;;;-139.68;100.00
10940;BME280;5522;42.696;23.494;2023-02-10T04:30:45;53522.13;;;-139.68;100.00
10940;BME280;5522;42.696;23.494;2023-02-10T04:33:12;53532.16;;;-139.68;100.00
10940;BME280;5522;42.696;23.494;2023-02-10T04:35:38;53566.34;;;-139.68;100.00
10940;BME280;5522;42.696;23.494;2023-02-10T04:38:05;53554.28;;;-139.68;100.00
10940;BME280;5522;42.696;23.494;2023-02-10T04:40:32;53526.16;;;-139.68;100.00
10940;BME280;5522;42.696;23.494;2023-02-10T04:42:59;53586.44;;;-139.68;100.00
10940;BME280;5522;42.696;23.494;2023-02-10T04:45:26;53564.34;;;-139.68;100.00
10940;BME280;5522;42.696;23.494;2023-02-10T04:47:54;53530.16;;;-139.68;100.00
10940;BME280;5522;42.696;23.494;2023-02-10T04:50:21;53596.50;;;-139.68;100.00
10940;BME280;5522;42.696;23.494;2023-02-10T04:52:47;53540.22;;;-139.68;100.00
10940;BME280;5522;42.696;23.494;2023-02-10T04:55:14;53546.25;;;-139.68;100.00
10940;BME280;5522;42.696;23.494;2023-02-10T04:57:41;53504.03;;;-139.68;100.00
10940;BME280;5522;42.696;23.494;2023-02-10T05:00:09;53542.22;;;-139.68;100.00
10940;BME280;5522;42.696;23.494;2023-02-10T05:02:36;53532.16;;;-139.68;100.00
10940;BME280;5522;42.696;23.494;2023-02-10T05:05:05;53534.19;;;-139.68;100.00
10940;BME280;5522;42.696;23.494;2023-02-10T05:07:32;53506.03;;;-139.68;100.00
10940;BME280;5522;42.696;23.494;2023-02-10T05:09:58;53508.06;;;-139.68;100.00
10940;BME280;5522;42.696;23.494;2023-02-10T05:12:25;53538.19;;;-139.68;100.00
10940;BME280;5522;42.696;23.494;2023-02-10T05:14:52;53554.28;;;-139.68;100.00
10940;BME280;5522;42.696;23.494;2023-02-10T05:17:19;53548.25;;;-139.68;100.00
10940;BME280;5522;42.696;23.494;2023-02-10T05:19:46;53491.97;;;-139.68;100.00
10940;BME280;5522;42.696;23.494;2023-02-10T05:22:14;53522.13;;;-139.68;100.00
10940;BME280;5522;42.696;23.494;2023-02-10T05:24:41;53493.97;;;-139.68;100.00
10940;BME280;5522;42.696;23.494;2023-02-10T05:27:08;53522.13;;;-139.68;100.00
10940;BME280;5522;42.696;23.494;2023-02-10T05:29:35;53554.28;;;-139.68;100.00
10940;BME280;5522;42.696;23.494;2023-02-10T05:32:01;53526.16;;;-139.68;100.00
10940;BME280;5522;42.696;23.494;2023-02-10T05:34:28;53510.06;;;-139.68;100.00
10940;BME280;5522;42.696;23.494;2023-02-10T05:36:55;53506.03;;;-139.68;100.00
10940;BME280;5522;42.696;23.494;2023-02-10T05:39:23;53498.00;;;-139.68;100.00
10940;BME280;5522;42.696;23.494;2023-02-10T05:41:52;53552.28;;;-139.68;100.00
10940;BME280;5522;42.696;23.494;2023-02-10T05:44:19;53524.13;;;-139.68;100.00
10940;BME280;5522;42.696;23.494;2023-02-10T05:46:46;53530.16;;;-139.68;100.00
10940;BME280;5522;42.696;23.494;2023-02-10T05:49:13;53534.19;;;-139.68;100.00
10940;BME280;5522;42.696;23.494;2023-02-10T05:51:40;53522.13;;;-139.68;100.00
10940;BME280;5522;42.696;23.494;2023-02-10T05:54:07;53546.25;;;-139.68;100.00
10940;BME280;5522;42.696;23.494;2023-02-10T05:56:35;53538.19;;;-139.68;100.00
10940;BME280;5522;42.696;23.494;2023-02-10T05:59:03;53530.16;;;-139.68;100.00
10940;BME280;5522;42.696;23.494;2023-02-10T06:01:30;53554.28;;;-139.68;100.00
10940;BME280;5522;42.696;23.494;2023-02-10T06:03:57;53526.16;;;-139.68;100.00
10940;BME280;5522;42.696;23.494;2023-02-10T06:06:24;53548.25;;;-139.68;100.00
10940;BME280;5522;42.696;23.494;2023-02-10T06:08:50;53574.38;;;-139.68;100.00
10940;BME280;5522;42.696;23.494;2023-02-10T06:11:17;53626.66;;;-139.68;95.77
10940;BME280;5522;42.696;23.494;2023-02-10T06:13:46;53602.53;;;-139.68;77.76
10940;BME280;5522;42.696;23.494;2023-02-10T06:16:13;53624.63;;;-139.68;60.68
10940;BME280;5522;42.696;23.494;2023-02-10T06:18:39;53590.47;;;-139.68;52.08
10940;BME280;5522;42.696;23.494;2023-02-10T06:21:07;53626.66;;;-139.68;49.85
10940;BME280;5522;42.696;23.494;2023-02-10T06:23:34;53644.75;;;-139.68;47.12
10940;BME280;5522;42.696;23.494;2023-02-10T06:26:01;53618.63;;;-139.68;45.00
10940;BME280;5522;42.696;23.494;2023-02-10T06:28:28;53622.63;;;-139.68;41.78
10940;BME280;5522;42.696;23.494;2023-02-10T06:30:57;53664.84;;;-139.68;39.31
10940;BME280;5522;42.696;23.494;2023-02-10T06:33:24;53642.72;;;-139.68;38.07
10940;BME280;5522;42.696;23.494;2023-02-10T06:35:51;53650.78;;;-139.68;36.76
10940;BME280;5522;42.696;23.494;2023-02-10T06:38:18;53682.94;;;-139.68;35.96
10940;BME280;5522;42.696;23.494;2023-02-10T06:40:44;53693.00;;;-139.68;34.33
10940;BME280;5522;42.696;23.494;2023-02-10T06:43:11;53703.03;;;-139.68;33.58
10940;BME280;5522;42.696;23.494;2023-02-10T06:45:38;53717.13;;;-139.68;32.74
10940;BME280;5522;42.696;23.494;2023-02-10T06:48:07;53695.00;;;-139.68;31.90
10940;BME280;5522;42.696;23.494;2023-02-10T06:50:36;53719.13;;;-139.68;31.31
10940;BME280;5522;42.696;23.494;2023-02-10T06:53:05;53715.09;;;-139.68;31.61
10940;BME280;5522;42.696;23.494;2023-02-10T06:55:32;53690.97;;;-139.68;31.71
10940;BME280;5522;42.696;23.494;2023-02-10T06:57:59;53697.00;;;-139.68;31.30
10940;BME280;5522;42.696;23.494;2023-02-10T07:00:26;53715.09;;;-139.68;31.01
10940;BME280;5522;42.696;23.494;2023-02-10T07:02:53;53697.00;;;-139.68;31.04
10940;BME280;5522;42.696;23.494;2023-02-10T07:05:21;53733.19;;;-139.68;30.62
10940;BME280;5522;42.696;23.494;2023-02-10T07:07:48;53751.28;;;-139.68;30.79
10940;BME280;5522;42.696;23.494;2023-02-10T07:10:16;53709.06;;;-139.68;30.88
10940;BME280;5522;42.696;23.494;2023-02-10T07:12:43;53695.00;;;-139.68;30.37
10940;BME280;5522;42.696;23.494;2023-02-10T07:15:12;53723.13;;;-139.68;29.58
10940;BME280;5522;42.696;23.494;2023-02-10T07:17:39;53725.16;;;-139.68;29.29
10940;BME280;5522;42.696;23.494;2023-02-10T07:20:07;53731.19;;;-139.68;28.65
10940;BME280;5522;42.696;23.494;2023-02-10T07:22:35;53747.25;;;-139.68;28.33
10940;BME280;5522;42.696;23.494;2023-02-10T07:25:03;53723.13;;;-139.68;27.74
10940;BME280;5522;42.696;23.494;2023-02-10T07:27:30;53707.06;;;-139.68;29.06
10940;BME280;5522;42.696;23.494;2023-02-10T07:29:57;53723.13;;;-139.68;29.20
10940;BME280;5522;42.696;23.494;2023-02-10T07:32:23;53743.25;;;-139.68;29.02
10940;BME280;5522;42.696;23.494;2023-02-10T07:34:50;53743.25;;;-139.68;29.33
10940;BME280;5522;42.696;23.494;2023-02-10T07:37:17;53711.09;;;-139.68;28.10
10940;BME280;5522;42.696;23.494;2023-02-10T07:39:46;53763.34;;;-139.68;29.53
10940;BME280;5522;42.696;23.494;2023-02-10T07:42:12;53743.25;;;-139.68;28.23
10940;BME280;5522;42.696;23.494;2023-02-10T07:44:39;53731.19;;;-139.68;28.42
10940;BME280;5522;42.696;23.494;2023-02-10T07:47:06;53729.16;;;-139.68;31.65
10940;BME280;5522;42.696;23.494;2023-02-10T07:49:33;53747.25;;;-139.68;30.18
10940;BME280;5522;42.696;23.494;2023-02-10T07:52:00;53747.25;;;-139.68;29.66
10940;BME280;5522;42.696;23.494;2023-02-10T07:54:27;53743.25;;;-139.68;29.26
10940;BME280;5522;42.696;23.494;2023-02-10T07:56:57;53737.22;;;-139.68;29.06
10940;BME280;5522;42.696;23.494;2023-02-10T07:59:24;53727.16;;;-139.68;29.64
10940;BME280;5522;42.696;23.494;2023-02-10T08:01:51;53735.19;;;-139.68;30.20
10940;BME280;5522;42.696;23.494;2023-02-10T08:04:18;53674.91;;;-139.68;30.17
10940;BME280;5522;42.696;23.494;2023-02-10T08:06:45;53733.19;;;-139.68;28.26
10940;BME280;5522;42.696;23.494;2023-02-10T08:09:12;53747.25;;;-139.68;27.94
10940;BME280;5522;42.696;23.494;2023-02-10T08:11:42;53763.34;;;-139.68;28.47
10940;BME280;5522;42.696;23.494;2023-02-10T08:14:10;53771.38;;;-139.68;27.92
10940;BME280;5522;42.696;23.494;2023-02-10T08:16:37;53771.38;;;-139.68;27.27
10940;BME280;5522;42.696;23.494;2023-02-10T08:19:04;53781.44;;;-139.68;28.38
10940;BME280;5522;42.696;23.494;2023-02-10T08:21:31;53725.16;;;-139.68;28.80
10940;BME280;5522;42.696;23.494;2023-02-10T08:23:58;53741.22;;;-139.68;28.67
10940;BME280;5522;42.696;23.494;2023-02-10T08:26:25;53707.06;;;-139.68;29.13
10940;BME280;5522;42.696;23.494;2023-02-10T08:28:52;53755.31;;;-139.68;29.57
10940;BME280;5522;42.696;23.494;2023-02-10T08:31:22;53741.22;;;-139.68;28.74
10940;BME280;5522;42.696;23.494;2023-02-10T08:33:50;53733.19;;;-139.68;27.96
10940;BME280;5522;42.696;23.494;2023-02-10T08:36:19;53715.09;;;-139.68;28.33
10940;BME280;5522;42.696;23.494;2023-02-10T08:38:50;53747.25;;;-139.68;28.36
10940;BME280;5522;42.696;23.494;2023-02-10T08:41:18;53787.47;;;-139.68;28.52
10940;BME280;5522;42.696;23.494;2023-02-10T08:43:45;53697.00;;;-139.68;27.70
10940;BME280;5522;42.696;23.494;2023-02-10T08:46:12;53751.28;;;-139.68;28.42
10940;BME280;5522;42.696;23.494;2023-02-10T08:48:40;53723.13;;;-139.68;27.44
10940;BME280;5522;42.696;23.494;2023-02-10T08:51:08;53727.16;;;-139.68;28.94
10940;BME280;5522;42.696;23.494;2023-02-10T08:53:36;53755.31;;;-139.68;28.37
10940;BME280;5522;42.696;23.494;2023-02-10T08:56:05;53741.22;;;-139.68;28.37
10940;BME280;5522;42.696;23.494;2023-02-10T08:58:33;53749.28;;;-139.68;27.84
10940;BME280;5522;42.696;23.494;2023-02-10T09:01:01;53735.19;;;-139.68;26.71
10940;BME280;5522;42.696;23.494;2023-02-10T09:03:28;53787.47;;;-139.68;26.59
10940;BME280;5522;42.696;23.494;2023-02-10T09:05:56;53755.31;;;-139.68;26.11
10940;BME280;5522;42.696;23.494;2023-02-10T09:08:23;53735.19;;;-139.68;26.27
10940;BME280;5522;42.696;23.494;2023-02-10T09:10:50;53753.28;;;-139.68;25.90
10940;BME280;5522;42.696;23.494;2023-02-10T09:13:17;53759.31;;;-139.68;25.74
10940;BME280;5522;42.696;23.494;2023-02-10T09:15:44;53767.38;;;-139.68;25.88
10940;BME280;5522;42.696;23.494;2023-02-10T09:18:11;53781.44;;;-139.68;26.05
10940;BME280;5522;42.696;23.494;2023-02-10T09:20:38;53803.56;;;-139.68;25.85
10940;BME280;5522;42.696;23.494;2023-02-10T09:23:06;53745.25;;;-139.68;25.16
10940;BME280;5522;42.696;23.494;2023-02-10T09:25:33;53759.31;;;-139.68;25.31
10940;BME280;5522;42.696;23.494;2023-02-10T09:28:00;53799.53;;;-139.68;27.03
10940;BME280;5522;42.696;23.494;2023-02-10T09:30:27;53777.41;;;-139.68;26.44
10940;BME280;5522;42.696;23.494;2023-02-10T09:32:54;53783.44;;;-139.68;25.27
10940;BME280;5522;42.696;23.494;2023-02-10T09:35:21;53779.44;;;-139.68;25.90
10940;BME280;5522;42.696;23.494;2023-02-10T09:37:48;53789.47;;;-139.68;25.65
10940;BME280;5522;42.696;23.494;2023-02-10T09:40:21;53793.50;;;-139.68;25.28
10940;BME280;5522;42.696;23.494;2023-02-10T09:43:02;53805.56;;;-139.68;25.33
10940;BME280;5522;42.696;23.494;2023-02-10T09:45:35;53779.44;;;-139.68;25.14
10940;BME280;5522;42.696;23.494;2023-02-10T09:48:17;53795.50;;;-139.68;26.63
10940;BME280;5522;42.696;23.494;2023-02-10T09:50:56;53799.53;;;-139.68;25.67
10940;BME280;5522;42.696;23.494;2023-02-10T09:53:25;53783.44;;;-139.68;25.34
10940;BME280;5522;42.696;23.494;2023-02-10T09:55:57;53775.41;;;-139.68;24.92
10940;BME280;5522;42.696;23.494;2023-02-10T09:58:31;53747.25;;;-139.68;25.33
10940;BME280;5522;42.696;23.494;2023-02-10T10:01:02;53759.31;;;-139.68;24.65
10940;BME280;5522;42.696;23.494;2023-02-10T10:03:38;53813.59;;;-139.68;23.91
10940;BME280;5522;42.696;23.494;2023-02-10T10:06:13;53803.56;;;-139.68;23.84
10940;BME280;5522;42.696;23.494;2023-02-10T10:08:48;53815.63;;;-139.68;23.62
10940;BME280;5522;42.696;23.494;2023-02-10T10:11:24;53787.47;;;-139.68;23.51
10940;BME280;5522;42.696;23.494;2023-02-10T10:13:52;53807.56;;;-139.68;24.40
10940;BME280;5522;42.696;23.494;2023-02-10T10:16:30;53813.59;;;-139.68;25.26
10940;BME280;5522;42.696;23.494;2023-02-10T10:19:07;53771.38;;;-139.68;24.96
10940;BME280;5522;42.696;23.494;2023-02-10T10:21:48;53793.50;;;-139.68;23.74
10940;BME280;5522;42.696;23.494;2023-02-10T10:24:31;53779.44;;;-139.68;24.84
10940;BME280;5522;42.696;23.494;2023-02-10T10:27:11;53819.63;;;-139.68;23.23
10940;BME280;5522;42.696;23.494;2023-02-10T10:29:44;53797.53;;;-139.68;24.08
10940;BME280;5522;42.696;23.494;2023-02-10T10:32:16;53785.47;;;-139.68;23.90
10940;BME280;5522;42.696;23.494;2023-02-10T10:34:49;53809.59;;;-139.68;23.31
10940;BME280;5522;42.696;23.494;2023-02-10T10:37:19;53855.81;;;-139.68;23.34
10940;BME280;5522;42.696;23.494;2023-02-10T10:39:49;53833.72;;;-139.68;23.23
10940;BME280;5522;42.696;23.494;2023-02-10T10:42:23;53775.41;;;-139.68;23.41
10940;BME280;5522;42.696;23.494;2023-02-10T10:44:55;53843.75;;;-139.68;22.84
10940;BME280;5522;42.696;23.494;2023-02-10T10:47:34;53831.69;;;-139.68;23.96
10940;BME280;5522;42.696;23.494;2023-02-10T10:50:04;53847.78;;;-139.68;23.08
10940;BME280;5522;42.696;23.494;2023-02-10T10:52:33;53821.66;;;-139.68;23.03
10940;BME280;5522;42.696;23.494;2023-02-10T10:55:06;53791.50;;;-139.68;22.52
10940;BME280;5522;42.696;23.494;2023-02-10T10:57:36;53799.53;;;-139.68;23.75
10940;BME280;5522;42.696;23.494;2023-02-10T11:00:16;53837.72;;;-139.68;24.09
10940;BME280;5522;42.696;23.494;2023-02-10T11:02:52;53855.81;;;-139.68;24.28
10940;BME280;5522;42.696;23.494;2023-02-10T11:05:19;53807.56;;;-139.68;24.58
10940;BME280;5522;42.696;23.494;2023-02-10T11:07:48;53807.56;;;-139.68;24.00
10940;BME280;5522;42.696;23.494;2023-02-10T11:10:22;53819.63;;;-139.68;24.59
10940;BME280;5522;42.696;23.494;2023-02-10T11:12:51;53823.66;;;-139.68;25.10
10940;BME280;5522;42.696;23.494;2023-02-10T11:15:31;53839.75;;;-139.68;24.40
10940;BME280;5522;42.696;23.494;2023-02-10T11:18:00;53787.47;;;-139.68;25.08
10940;BME280;5522;42.696;23.494;2023-02-10T11:20:29;53805.56;;;-139.68;24.40
10940;BME280;5522;42.696;23.494;2023-02-10T11:22:58;53831.69;;;-139.68;24.11
10940;BME280;5522;42.696;23.494;2023-02-10T11:25:29;53799.53;;;-139.68;24.70
10940;BME280;5522;42.696;23.494;2023-02-10T11:27:59;53799.53;;;-139.68;24.53
10940;BME280;5522;42.696;23.494;2023-02-10T11:30:28;53825.66;;;-139.68;24.78
10940;BME280;5522;42.696;23.494;2023-02-10T11:32:55;53825.66;;;-139.68;25.68
10940;BME280;5522;42.696;23.494;2023-02-10T11:35:24;53823.66;;;-139.68;26.56
10940;BME280;5522;42.696;23.494;2023-02-10T11:37:53;53785.47;;;-139.68;27.43
10940;BME280;5522;42.696;23.494;2023-02-10T11:40:24;53791.50;;;-139.68;29.02
10940;BME280;5522;42.696;23.494;2023-02-10T11:42:52;53731.19;;;-139.68;29.43
10940;BME280;5522;42.696;23.494;2023-02-10T11:45:23;53731.19;;;-139.68;30.83
10940;BME280;5522;42.696;23.494;2023-02-10T11:47:59;53809.59;;;-139.68;31.82
10940;BME280;5522;42.696;23.494;2023-02-10T11:50:28;53787.47;;;-139.68;31.87
10940;BME280;5522;42.696;23.494;2023-02-10T11:52:57;53787.47;;;-139.68;32.37
10940;BME280;5522;42.696;23.494;2023-02-10T11:55:33;53733.19;;;-139.68;32.63
10940;BME280;5522;42.696;23.494;2023-02-10T11:58:18;53783.44;;;-139.68;32.98
10940;BME280;5522;42.696;23.494;2023-02-10T12:01:16;53747.25;;;-139.68;32.96
10940;BME280;5522;42.696;23.494;2023-02-10T12:03:53;53775.41;;;-139.68;32.61
10940;BME280;5522;42.696;23.494;2023-02-10T12:06:25;53733.19;;;-139.68;32.64
10940;BME280;5522;42.696;23.494;2023-02-10T12:08:59;53761.34;;;-139.68;32.04
10940;BME280;5522;42.696;23.494;2023-02-10T12:11:35;53775.41;;;-139.68;32.05
10940;BME280;5522;42.696;23.494;2023-02-10T12:14:22;53755.31;;;-139.68;32.05
10940;BME280;5522;42.696;23.494;2023-02-10T12:17:02;53755.31;;;-139.68;32.95
10940;BME280;5522;42.696;23.494;2023-02-10T12:19:36;53733.19;;;-139.68;33.73
10940;BME280;5522;42.696;23.494;2023-02-10T12:22:13;53759.31;;;-139.68;33.82
10940;BME280;5522;42.696;23.494;2023-02-10T12:25:11;53747.25;;;-139.68;33.38
10940;BME280;5522;42.696;23.494;2023-02-10T12:27:57;53763.34;;;-139.68;33.64
10940;BME280;5522;42.696;23.494;2023-02-10T12:30:34;53773.41;;;-139.68;33.56
10940;BME280;5522;42.696;23.494;2023-02-10T12:33:24;53771.38;;;-139.68;33.85
10940;BME280;5522;42.696;23.494;2023-02-10T12:36:02;53763.34;;;-139.68;33.64
10940;BME280;5522;42.696;23.494;2023-02-10T12:38:46;53727.16;;;-139.68;33.47
10940;BME280;5522;42.696;23.494;2023-02-10T12:41:19;53763.34;;;-139.68;33.68
10940;BME280;5522;42.696;23.494;2023-02-10T12:44:11;53745.25;;;-139.68;34.00
10940;BME280;5522;42.696;23.494;2023-02-10T12:46:46;53765.34;;;-139.68;34.44
10940;BME280;5522;42.696;23.494;2023-02-10T12:49:29;53743.25;;;-139.68;33.65
10940;BME280;5522;42.696;23.494;2023-02-10T12:52:05;53795.50;;;-139.68;34.12
10940;BME280;5522;42.696;23.494;2023-02-10T12:54:38;53727.16;;;-139.68;34.02
10940;BME280;5522;42.696;23.494;2023-02-10T12:57:09;53755.31;;;-139.68;33.98
10940;BME280;5522;42.696;23.494;2023-02-10T12:59:46;53759.31;;;-139.68;33.95
10940;BME280;5522;42.696;23.494;2023-02-10T13:02:17;53767.38;;;-139.68;34.14